ETEB 071856Z AUTO 33004KT 9999 CLR 18/06 A3009 RMK AO2 SLP195 T01760058 $ EDMA 071920Z AUTO 02002KT 9999 // NCD 14/09 Q1019 ETIK 071856Z AUTO 36003KT 9999 CLR 18/06 A3009 RMK AO2 SLP186 T01770062 FZRANO EDDT 071920Z 29022G35KT 9999 -SHRA FEW045CB 16/10 Q1016 BECMG 23008KT LSZB 071920Z AUTO VRB01KT CAVOK 18/08 Q1019 LIPB 071850Z 17009KT 140V210 CAVOK 24/11 Q1014 RMK MON LIB EDVE 071550Z 26008KT 230V300 CAVOK 19/07 Q1016 EDDW 071920Z 27008KT 9999 FEW025 14/08 Q1016 NOSIG LFMD 071900Z AUTO 19004KT 180V250 CAVOK 26/16 Q1013 NOSIG EDLW 071920Z VRB01KT CAVOK 16/08 Q1017 EDDC 071920Z 23003KT CAVOK 17/05 Q1016 NOSIG EDDL 071920Z 29003KT CAVOK 18/08 Q1017 NOSIG EDDE 071920Z 28008KT 220V320 CAVOK 16/08 Q1017 NOSIG LIRQ 071920Z VRB02KT CAVOK 24/08 Q1014 EDDF 071920Z 24004KT CAVOK 19/07 Q1017 NOSIG EDNY 071920Z AUTO 00000KT 9999 // NCD 17/09 Q1018 ETHF 071920Z 30004KT 9999 FEW060 BKN080 17/08 Q1017 BLU LIMJ 071920Z 01010KT CAVOK 27/12 Q1013 ETIC 071856Z AUTO 00000KT 9999 CLR 17/06 A3006 RMK AO2 SLP176 T01690064 $ LOWG 071920Z AUTO 13004KT 9999 NCD 17/09 Q1019 NOSIG EDDH 071920Z 26006KT 230V290 9999 FEW016 BKN046 13/09 Q1015 NOSIG EDDV 071920Z 22003KT 190V270 9999 FEW040 14/11 Q1016 NOSIG ETIH 071856Z AUTO 29003KT 9999 OVC065 18/05 A3009 RMK AO2 SLP184 T01800052 ETSI 071920Z AUTO 26002KT 6000 // ////// 18/10 Q1018 /// LOWI 071920Z 03003KT 350V070 9999 FEW070 18/09 Q1018 NOSIG EDVK 071820Z 32007KT CAVOK 16/10 Q1018 RERA EDHK 071920Z AUTO 25007KT 9999 // OVC062/// 12/09 Q1014 LOWK 071920Z AUTO 08006KT 9999 NCD 19/09 Q1018 EDDK 071920Z 03003KT CAVOK 18/09 Q1018 NOSIG EDDP 071920Z 25006KT 9999 FEW052CB 18/06 Q1016 NOSIG LOWL 071920Z AUTO 30003KT 270V330 9999 NCD 17/08 Q1018 NOSIG LSZA 071920Z AUTO 18004KT 150V210 9999 FEW055 22/16 Q1016 EDHL 071850Z 23006KT 190V260 9999 FEW020 13/11 Q1014 LIML 071920Z 12005KT 080V140 CAVOK 24/13 Q1015 NOSIG LFML 071900Z AUTO 30006KT CAVOK 27/10 Q1014 NOSIG LFMT 071900Z AUTO 20004KT CAVOK 25/11 Q1014 NOSIG EDLN 071920Z AUTO VRB02KT 9999 // BKN054/// OVC083/// 17/10 Q1017 EDDM 071920Z VRB01KT CAVOK 16/10 Q1019 NOSIG EDDG 071920Z 24003KT 210V270 9999 -RA FEW033 15/10 Q1017 NOSIG ETSN 071920Z 32001KT 9999 FEW060 17/08 Q1019 BLU+ ETHN 071920Z 04003KT 9999 FEW070 16/05 Q1019 BLU+ LFMN 071900Z 22009KT 9999 FEW033 26/20 Q1013 NOSIG EDDN 071920Z 34005KT CAVOK 18/06 Q1018 NOSIG EDMO 071920Z AUTO VRB02KT 9999 // NCD 17/06 Q1019 EDLP 071920Z 28003KT 240V320 CAVOK 15/08 Q1018 LIPR 071920Z AUTO 08004KT 9999 NCD 22/10 Q1016 EDDR 071920Z 29004KT CAVOK 18/07 Q1019 NOSIG LOWS 071920Z 29003KT CAVOK 17/10 Q1019 NOSIG LSGS 071920Z AUTO 24012KT CAVOK 22/06 Q1016 EDDS 071920Z 34004KT 310V020 CAVOK 18/07 Q1018 NOSIG LFTH 071900Z AUTO 00000KT CAVOK 28/14 Q1014 NOSIG LIVT 071855Z /////KT CAVOK 23/09 Q1016 LIMF 071920Z 04004KT CAVOK 22/16 Q1016 LIPI 071355Z 17006KT CAVOK 25/07 Q1015 RMK SKC VIS MIN 9999 WIND THR06 18005KT WIND THR24 08002KT BLU LIPZ 071920Z 05006KT CAVOK 23/09 Q1016 NOSIG LIPX 071920Z 11004KT CAVOK 20/11 Q1016 EDXW 071920Z AUTO 27013KT 8000 // FEW018/// BKN021/// OVC062/// 12/10 Q1013 LOWW 071920Z 08003KT CAVOK 17/09 Q1018 NOSIG LSZH 071920Z 31004KT CAVOK 18/09 Q1019 NOSIG

METAR Messwerte

Klicken Sie auf einen Ort, um die 36h-Historie abzurufen

Ort
m ü. NN
Zeit Temperatur Taupunkt Rel.
Luftfeuchte
Luftdruck:
Altimeter
NN
Station
Wind in Beaufort
(Knoten)
Sichtweite
(Meter)
Wolken
(Meter über Grund)
Wettererscheinung
Ansbach
467
Di 07.07. 20:5618645 %1019
1018
964
NNW 2 (4)>= 10000  
Augsburg
463
Di 07.07. 21:2014972 %1019
1019
964
NNO 1 (2)>= 10000  
Bad Windsheim / Illesheim
325
Di 07.07. 20:5618645 %1019
1019
980
N 2 (3)>= 10000  
Berlin-Tegel
37
Di 07.07. 21:20161068 %1016
1016
1012
WNW 6 (22) - 8 (35)
Bald Übergang zu:
SW 3 (8)
>= 10000Leicht bewölkt Cb (1400)Regen-Schauer (schwach)
Bern/Belp
505
Di 07.07. 21:2018852 %1019
1018
960
Uml 1 (1)>= 10000Nicht signifikant 
Bozen
241
Di 07.07. 20:50241144 %1014
1013
985
S 3 (9)
SO - SSW
>= 10000Nicht signifikant 
Braunschweig
88
Di 07.07. 17:5019746 %1016
1016
1005
W 3 (8)
SW - WNW
>= 10000Nicht signifikant 
Bremen
5
Di 07.07. 21:2014867 %1016
1016
1015
W 3 (8)>= 10000Leicht bewölkt (760) 
Cannes
9
Di 07.07. 21:00261654 %1013
1013
1012
S 2 (4)
S - WSW
>= 10000Nicht signifikant 
Dortmund/Wickede
127
Di 07.07. 21:2016859 %1017
1017
1002
Uml 1 (1)>= 10000Nicht signifikant 
Dresden-Klotzsche
226
Di 07.07. 21:2017545 %1016
1016
989
SW 2 (3)>= 10000Nicht signifikant 
Düsseldorf
44
Di 07.07. 21:2018852 %1017
1017
1012
WNW 2 (3)>= 10000Nicht signifikant 
Erfurt-Bindersleben
323
Di 07.07. 21:2016859 %1017
1017
979
W 3 (8)
SW - NW
>= 10000Nicht signifikant 
Florenz
38
Di 07.07. 21:2024836 %1014
1014
1009
Uml 1 (2)>= 10000Nicht signifikant 
Frankfurt
113
Di 07.07. 21:2019746 %1017
1017
1003
WSW 2 (4)>= 10000Nicht signifikant 
Friedrichshafen
424
Di 07.07. 21:2017959 %1018
1018
968
Windstill>= 10000  
Fritzlar
181
Di 07.07. 21:2017855 %1017
1017
995
WNW 2 (4)>= 10000Stark bewölkt (2400)
Leicht bewölkt (1800)
 
Genua
3
Di 07.07. 21:20271239 %1013
1013
1013
N 3 (10)>= 10000Nicht signifikant 
Grafenwöhr
415
Di 07.07. 20:5617648 %1018
1018
969
Windstill>= 10000  
Graz-Thalerhof
347
Di 07.07. 21:2017959 %1019
1019
978
SO 2 (4)>= 10000  
Hamburg-Fuhlsbüttel
16
Di 07.07. 21:2013977 %1015
1015
1013
W 2 (6)
SW - WNW
>= 10000Stark bewölkt (1400)
Leicht bewölkt (490)
 
Hannover
54
Di 07.07. 21:20141182 %1016
1016
1010
SW 2 (3)
S - W
>= 10000Leicht bewölkt (1200) 
Hohenfels
442
Di 07.07. 20:5618542 %1019
1019
967
WNW 2 (3)>= 10000Bedeckt (2000) 
Ingolstadt
370
Di 07.07. 21:20181059 %1018
1018
974
W 1 (2)6000  
Innsbruck
581
Di 07.07. 21:2018956 %1018
1017
950
NNO 2 (3)
N - ONO
>= 10000Leicht bewölkt (2100) 
Kassel/Calden
285
Di 07.07. 20:20161068 %1018
1018
984
NW 3 (7)>= 10000Nicht signifikant 
Kiel
31
Di 07.07. 21:2012982 %1014
1014
1010
WSW 3 (7)>= 10000Bedeckt (1900) 
Klagenfurt
441
Di 07.07. 21:2019952 %1018
1017
966
O 2 (6)>= 10000  
Köln/Bonn
99
Di 07.07. 21:2018956 %1018
1018
1006
NNO 2 (3)>= 10000Nicht signifikant 
Leipzig-Schkeuditz
149
Di 07.07. 21:2018645 %1016
1016
998
WSW 2 (6)>= 10000Leicht bewölkt Cb (1600) 
Linz/Hörsching
313
Di 07.07. 21:2017855 %1018
1018
981
WNW 2 (3)
W - NNW
>= 10000  
Lugano
276
Di 07.07. 21:20221669 %1016
1015
983
S 2 (4)
SSO - SSW
>= 10000Leicht bewölkt (1700) 
Lübeck-Blankensee
16
Di 07.07. 20:50131188 %1014
1014
1012
SW 2 (6)
S - W
>= 10000Leicht bewölkt (610) 
Mailand
103
Di 07.07. 21:20241350 %1015
1015
1003
OSO 2 (5)
O - SO
>= 10000Nicht signifikant 
Marseille/Marignane
36
Di 07.07. 21:00271034 %1014
1014
1010
WNW 2 (6)>= 10000Nicht signifikant 
Montpellier
6
Di 07.07. 21:00251141 %1014
1014
1013
SSW 2 (4)>= 10000Nicht signifikant 
Mönchengladbach
38
Di 07.07. 21:20171063 %1017
1017
1012
Uml 1 (2)>= 10000Bedeckt (2500)
Stark bewölkt (1600)
 
München
447
Di 07.07. 21:20161068 %1019
1019
966
Uml 1 (1)>= 10000Nicht signifikant 
Münster/Osnabrück
52
Di 07.07. 21:20151072 %1017
1017
1011
WSW 2 (3)
SSW - W
>= 10000Leicht bewölkt (1000)Regen (schwach)
Neuburg/Donau
387
Di 07.07. 21:2017855 %1019
1019
973
NW 1 (1)>= 10000Leicht bewölkt (1800) 
Niederstetten
473
Di 07.07. 21:2016548 %1019
1019
963
NO 2 (3)>= 10000Leicht bewölkt (2100) 
Nizza
10
Di 07.07. 21:00262070 %1013
1013
1012
SW 3 (9)>= 10000Leicht bewölkt (1000) 
Nürnberg
312
Di 07.07. 21:2018645 %1018
1018
981
NNW 2 (5)>= 10000Nicht signifikant 
Oberpfaffenhofen
600
Di 07.07. 21:2017648 %1019
1019
949
Uml 1 (2)>= 10000  
Paderborn/Lippstadt
213
Di 07.07. 21:2015863 %1018
1018
993
W 2 (3)
WSW - NW
>= 10000Nicht signifikant 
Rimini
13
Di 07.07. 21:20221046 %1016
1016
1014
O 2 (4)>= 10000  
Saarbrücken/Ensheim
320
Di 07.07. 21:2018749 %1019
1019
981
WNW 2 (4)>= 10000Nicht signifikant 
Salzburg
450
Di 07.07. 21:20171063 %1019
1019
966
WNW 2 (3)>= 10000Nicht signifikant 
Sion
481
Di 07.07. 21:2022635 %1016
1015
959
WSW 4 (12)>= 10000Nicht signifikant 
Stuttgart
419
Di 07.07. 21:2018749 %1018
1018
968
NNW 2 (4)
NW - NNO
>= 10000Nicht signifikant 
Toulon
4
Di 07.07. 21:00281442 %1014
1014
1014
Windstill>= 10000Nicht signifikant 
Triest
20
Di 07.07. 20:5523941 %1016
1016
1014
 >= 10000Nicht signifikant 
Turin
287
Di 07.07. 21:20221669 %1016
1015
982
NO 2 (4)>= 10000Nicht signifikant 
Udine/Rivolto
53
Di 07.07. 15:5525732 %1015
1015
1009
S 2 (6)>= 10000Nicht signifikant 
Venedig
6
Di 07.07. 21:2023941 %1016
1016
1015
NO 2 (6)>= 10000Nicht signifikant 
Verona/Villafranca
68
Di 07.07. 21:20201156 %1016
1016
1008
OSO 2 (4)>= 10000Nicht signifikant 
Westerland/Sylt
20
Di 07.07. 21:20121088 %1013
1013
1011
W 4 (13)8000Bedeckt (1900)
Stark bewölkt (640)
Leicht bewölkt (550)
 
Wien/Schwechat
190
Di 07.07. 21:2017959 %1018
1018
995
O 2 (3)>= 10000Nicht signifikant 
Zürich-Kloten
432
Di 07.07. 21:2018956 %1019
1019
968
NW 2 (4)>= 10000Nicht signifikant 

Altimeter: Einstellung am Altimeter (Höhenmesser), die Höhe 0 muss auf diesen Luftdruckwert zeigen, damit das Gerät die Stationshöhe richtig anzeigt.

NN: Luftdruck reduziert auf "Normal Null", auf Meereshöhe, dieser von der Temperatur abhängige Wert wird bisweilen unkorrekt einfach als "Luftdruck" bezeichnet. Eigentlich nur eine fiktive Größe, die es erlaubt, Stationen auf unterschiedlichen Höhen miteinander zu vergleichen.

Station: Realer Luftdruck an der Station.